createdAt,value
2022-09-12T00:01:18.209Z,14.25
2022-09-12T00:03:48.929Z,14.21
2022-09-12T00:06:22.967Z,14.17
2022-09-12T00:08:50.162Z,14.03
2022-09-12T00:11:16.773Z,13.99
2022-09-12T00:13:43.912Z,13.95
2022-09-12T00:16:22.100Z,13.88
2022-09-12T00:18:48.835Z,13.86
2022-09-12T00:21:17.641Z,13.84
2022-09-12T00:23:44.909Z,13.89
2022-09-12T00:26:12.087Z,13.95
2022-09-12T00:28:39.783Z,13.93
2022-09-12T00:31:09.112Z,13.90
2022-09-12T00:33:36.307Z,13.95
2022-09-12T00:36:09.583Z,13.94
2022-09-12T00:38:38.542Z,13.92
2022-09-12T00:41:06.432Z,13.89
2022-09-12T00:43:39.693Z,13.70
2022-09-12T00:46:26.356Z,13.68
2022-09-12T00:49:15.780Z,13.67
2022-09-12T00:52:14.643Z,13.54
2022-09-12T00:54:58.124Z,13.50
2022-09-12T00:57:33.655Z,13.42
2022-09-12T01:00:10.428Z,13.40
2022-09-12T01:02:36.786Z,13.45
2022-09-12T01:05:03.523Z,13.42
2022-09-12T01:07:30.338Z,13.31
2022-09-12T01:09:56.892Z,13.35
2022-09-12T01:12:24.081Z,13.43
2022-09-12T01:14:50.472Z,13.42
2022-09-12T01:17:17.101Z,13.39
2022-09-12T01:19:49.842Z,13.38
2022-09-12T01:22:47.212Z,13.40
2022-09-12T01:25:40.479Z,13.40
2022-09-12T01:28:38.516Z,13.31
2022-09-12T01:31:19.227Z,13.20
2022-09-12T01:33:57.710Z,13.18
2022-09-12T01:36:38.335Z,13.11
2022-09-12T01:39:26.712Z,13.13
2022-09-12T01:42:10.316Z,13.13
2022-09-12T01:44:36.740Z,13.03
2022-09-12T01:47:10.090Z,12.98
2022-09-12T01:49:52.012Z,13.00
2022-09-12T01:52:25.568Z,13.02
2022-09-12T01:55:01.335Z,12.97
2022-09-12T01:57:53.516Z,12.91
2022-09-12T02:00:20.613Z,12.94
2022-09-12T02:02:54.360Z,12.97
2022-09-12T02:05:36.276Z,13.00
2022-09-12T02:08:18.448Z,12.98
2022-09-12T02:10:55.969Z,12.92
2022-09-12T02:13:29.765Z,12.91
2022-09-12T02:16:03.682Z,12.91
2022-09-12T02:18:34.154Z,12.90
2022-09-12T02:21:02.078Z,12.86
2022-09-12T02:23:33.065Z,12.72
2022-09-12T02:26:17.514Z,12.69
2022-09-12T02:28:44.264Z,12.72
2022-09-12T02:31:42.983Z,12.73
2022-09-12T02:34:15.660Z,12.70
2022-09-12T02:37:03.059Z,12.64
2022-09-12T02:39:29.509Z,12.64
2022-09-12T02:41:59.536Z,12.65
2022-09-12T02:44:27.905Z,12.65
2022-09-12T02:46:59.418Z,12.63
2022-09-12T02:49:26.155Z,12.63
2022-09-12T02:51:52.527Z,12.68
2022-09-12T02:54:19.924Z,12.70
2022-09-12T02:56:46.733Z,12.68
2022-09-12T02:59:18.301Z,12.60
2022-09-12T03:02:03.748Z,12.51
2022-09-12T03:05:12.936Z,12.39
2022-09-12T03:08:03.978Z,12.34
2022-09-12T03:10:42.688Z,12.34
2022-09-12T03:13:24.705Z,12.36
2022-09-12T03:15:57.154Z,12.40
2022-09-12T03:18:54.573Z,12.39
2022-09-12T03:21:47.002Z,12.37
2022-09-12T03:24:23.837Z,12.31
2022-09-12T03:26:57.907Z,12.26
2022-09-12T03:29:26.397Z,12.24
2022-09-12T03:31:55.566Z,12.27
2022-09-12T03:34:24.132Z,12.30
2022-09-12T03:36:51.446Z,12.29
2022-09-12T03:39:18.423Z,12.31
2022-09-12T03:41:44.775Z,12.30
2022-09-12T03:44:11.140Z,12.35
2022-09-12T03:46:37.688Z,12.29
2022-09-12T03:49:04.262Z,12.20
2022-09-12T03:51:31.182Z,12.23
2022-09-12T03:53:57.714Z,12.17
2022-09-12T03:56:24.103Z,12.16
2022-09-12T03:58:50.609Z,12.16
2022-09-12T04:01:19.469Z,12.20
2022-09-12T04:03:48.698Z,12.21
2022-09-12T04:06:17.217Z,12.18
2022-09-12T04:08:44.552Z,12.18
2022-09-12T04:11:13.348Z,12.13
2022-09-12T04:13:41.754Z,12.16
2022-09-12T04:16:09.039Z,12.18
2022-09-12T04:18:36.200Z,12.16
2022-09-12T04:21:08.164Z,12.09
2022-09-12T04:23:35.213Z,12.08
2022-09-12T04:26:03.340Z,12.06
2022-09-12T04:28:30.138Z,12.03
2022-09-12T04:31:01.234Z,12.09
2022-09-12T04:33:27.807Z,12.13
2022-09-12T04:35:54.146Z,12.13
2022-09-12T04:38:20.694Z,12.11
2022-09-12T04:40:47.801Z,12.08
2022-09-12T04:43:14.734Z,12.08
2022-09-12T04:45:41.471Z,12.10
2022-09-12T04:48:07.877Z,12.02
2022-09-12T04:50:34.409Z,11.99
2022-09-12T04:53:03.848Z,12.02
2022-09-12T04:55:30.392Z,12.07
2022-09-12T04:57:56.740Z,12.09
2022-09-12T05:00:24.296Z,12.06
2022-09-12T05:02:50.644Z,12.12
2022-09-12T05:05:17.602Z,12.16
2022-09-12T05:07:44.072Z,12.21
2022-09-12T05:10:10.689Z,12.27
2022-09-12T05:12:37.296Z,12.36
2022-09-12T05:15:04.655Z,12.39
2022-09-12T05:17:31.020Z,12.42
2022-09-12T05:19:57.658Z,12.44
2022-09-12T05:22:24.009Z,12.41
2022-09-12T05:24:50.832Z,12.40
2022-09-12T05:27:17.510Z,12.41
2022-09-12T05:29:43.929Z,12.45
2022-09-12T05:32:10.455Z,12.47
2022-09-12T05:34:37.907Z,12.40
2022-09-12T05:37:04.520Z,12.39
2022-09-12T05:39:30.851Z,12.46
2022-09-12T05:41:57.208Z,12.51
2022-09-12T05:44:23.740Z,12.51
2022-09-12T05:46:51.453Z,12.53
2022-09-12T05:49:17.797Z,12.58
2022-09-12T05:51:45.630Z,12.63
2022-09-12T05:54:15.789Z,12.64
2022-09-12T05:56:44.153Z,12.70
2022-09-12T05:59:12.323Z,12.78
2022-09-12T06:01:39.327Z,12.71
2022-09-12T06:04:06.776Z,12.68
2022-09-12T06:06:37.499Z,12.64
2022-09-12T06:09:05.590Z,12.65
2022-09-12T06:11:34.054Z,12.68
2022-09-12T06:14:01.201Z,12.72
2022-09-12T06:16:30.381Z,12.69
2022-09-12T06:18:59.687Z,12.75
2022-09-12T06:21:27.312Z,12.82
2022-09-12T06:23:55.277Z,12.86
2022-09-12T06:26:23.518Z,12.86
2022-09-12T06:28:50.461Z,12.90
2022-09-12T06:31:19.533Z,12.94
2022-09-12T06:33:49.865Z,13.03
2022-09-12T06:36:22.592Z,13.19
2022-09-12T06:38:54.530Z,13.36
2022-09-12T06:41:21.043Z,13.61
2022-09-12T06:43:47.404Z,13.79
2022-09-12T06:46:13.806Z,13.85
2022-09-12T06:48:42.138Z,13.91
2022-09-12T06:51:14.681Z,13.96
2022-09-12T06:53:42.117Z,14.02
2022-09-12T06:56:14.664Z,14.23
2022-09-12T06:58:42.830Z,14.41
2022-09-12T07:01:10.755Z,16.83
2022-09-12T07:03:38.315Z,20.84
2022-09-12T07:06:10.949Z,23.37
2022-09-12T07:08:38.425Z,24.95
2022-09-12T07:11:12.326Z,26.36
2022-09-12T07:13:45.416Z,27.16
2022-09-12T07:16:18.718Z,28.08
2022-09-12T07:18:59.585Z,28.92
2022-09-12T07:21:26.756Z,28.89
2022-09-12T07:23:55.255Z,28.79
2022-09-12T07:26:21.807Z,27.37
2022-09-12T07:28:53.740Z,26.36
2022-09-12T07:31:23.004Z,27.36
2022-09-12T07:33:54.356Z,29.20
2022-09-12T07:36:23.750Z,30.22
2022-09-12T07:38:57.382Z,30.24
2022-09-12T07:41:26.596Z,30.27
2022-09-12T07:43:58.176Z,30.71
2022-09-12T07:46:26.534Z,30.30
2022-09-12T07:48:55.386Z,30.02
2022-09-12T07:51:22.906Z,30.68
2022-09-12T07:53:49.958Z,30.98
2022-09-12T07:56:16.678Z,30.84
2022-09-12T07:58:44.047Z,30.14
2022-09-12T08:01:19.552Z,29.78
2022-09-12T08:03:53.295Z,30.40
2022-09-12T08:06:24.087Z,31.02
2022-09-12T08:08:52.147Z,30.81
2022-09-12T08:11:23.545Z,30.88
2022-09-12T08:13:55.456Z,31.46
2022-09-12T08:16:24.921Z,31.64
2022-09-12T08:18:51.685Z,31.47
2022-09-12T08:21:21.280Z,31.01
2022-09-12T08:23:51.626Z,31.02
2022-09-12T08:26:21.314Z,30.96
2022-09-12T08:28:48.262Z,31.11
2022-09-12T08:31:20.374Z,30.86
2022-09-12T08:33:57.388Z,30.87
2022-09-12T08:36:27.176Z,30.80
2022-09-12T08:39:16.264Z,31.01
2022-09-12T08:41:49.347Z,31.06
2022-09-12T08:44:36.049Z,31.02
2022-09-12T08:47:25.405Z,30.83
2022-09-12T08:50:10.043Z,29.45
2022-09-12T08:52:49.589Z,29.16
2022-09-12T08:55:35.281Z,29.72
2022-09-12T08:58:14.665Z,29.81
2022-09-12T09:00:48.589Z,29.76
2022-09-12T09:03:36.857Z,29.77
2022-09-12T09:06:27.068Z,29.65
2022-09-12T09:09:11.916Z,29.94
2022-09-12T09:11:55.891Z,30.21
2022-09-12T09:14:56.480Z,30.06
2022-09-12T09:17:38.731Z,29.89
2022-09-12T09:20:23.176Z,29.84
2022-09-12T09:22:55.814Z,29.25
2022-09-12T09:25:29.299Z,29.20
2022-09-12T09:28:03.916Z,29.61
2022-09-12T09:30:30.789Z,29.63
2022-09-12T09:33:00.720Z,29.19
2022-09-12T09:35:44.976Z,28.96
2022-09-12T09:38:51.119Z,29.23
2022-09-12T09:41:33.311Z,29.48
2022-09-12T09:44:00.982Z,29.72
2022-09-12T09:46:28.078Z,29.69
2022-09-12T09:48:58.709Z,29.54
2022-09-12T09:51:33.930Z,29.79
2022-09-12T09:54:05.785Z,29.82
2022-09-12T09:56:37.828Z,29.44
2022-09-12T09:59:16.589Z,29.25
2022-09-12T10:01:55.491Z,29.44
2022-09-12T10:04:24.576Z,29.23
2022-09-12T10:06:53.095Z,28.64
2022-09-12T10:09:23.702Z,28.62
2022-09-12T10:11:51.492Z,28.83
2022-09-12T10:14:32.276Z,29.08
2022-09-12T10:16:59.708Z,29.28
2022-09-12T10:19:42.744Z,29.16
2022-09-12T10:22:17.671Z,28.95
2022-09-12T10:24:50.406Z,27.95
2022-09-12T10:27:20.650Z,27.12
2022-09-12T10:30:04.631Z,26.69
2022-09-12T10:32:38.348Z,26.69
2022-09-12T10:35:25.097Z,26.39
2022-09-12T10:37:58.429Z,26.02
2022-09-12T10:40:35.130Z,25.44
2022-09-12T10:43:03.129Z,25.22
2022-09-12T10:45:30.884Z,24.97
2022-09-12T10:48:07.315Z,24.85
2022-09-12T10:50:41.954Z,24.89
2022-09-12T10:53:22.278Z,24.99
2022-09-12T10:56:11.845Z,25.04
2022-09-12T10:58:46.549Z,25.31
2022-09-12T11:01:31.988Z,25.53
2022-09-12T11:04:23.288Z,25.72
2022-09-12T11:07:13.804Z,26.00
2022-09-12T11:10:01.379Z,26.40
2022-09-12T11:12:56.110Z,26.57
2022-09-12T11:15:28.528Z,26.62
2022-09-12T11:18:05.036Z,26.64
2022-09-12T11:21:03.376Z,26.23
2022-09-12T11:23:44.656Z,25.59
2022-09-12T11:26:14.146Z,25.49
2022-09-12T11:28:51.244Z,25.94
2022-09-12T11:31:49.817Z,26.46
2022-09-12T11:34:32.184Z,26.52
2022-09-12T11:37:22.221Z,26.77
2022-09-12T11:39:55.571Z,26.91
2022-09-12T11:42:29.011Z,26.90
2022-09-12T11:45:12.658Z,26.83
2022-09-12T11:47:41.005Z,26.95
2022-09-12T11:50:20.281Z,26.59
2022-09-12T11:52:46.847Z,26.42
2022-09-12T11:55:19.498Z,26.43
2022-09-12T11:57:56.994Z,26.24
2022-09-12T12:00:37.064Z,26.13
2022-09-12T12:03:13.622Z,25.76
2022-09-12T12:05:58.560Z,25.51
2022-09-12T12:08:26.447Z,25.39
2022-09-12T12:10:59.608Z,25.44
2022-09-12T12:13:41.135Z,25.53
2022-09-12T12:16:24.936Z,25.50
2022-09-12T12:19:06.470Z,25.47
2022-09-12T12:21:45.456Z,25.70
2022-09-12T12:24:21.254Z,25.73
2022-09-12T12:26:51.409Z,25.73
2022-09-12T12:29:17.854Z,25.71
2022-09-12T12:31:59.279Z,25.68
2022-09-12T12:34:38.894Z,25.75
2022-09-12T12:37:20.923Z,25.83
2022-09-12T12:39:50.979Z,25.83
2022-09-12T12:42:32.995Z,25.76
2022-09-12T12:45:00.968Z,25.72
2022-09-12T12:47:29.108Z,25.71
2022-09-12T12:49:59.824Z,25.83
2022-09-12T12:52:33.035Z,25.99
2022-09-12T12:55:04.388Z,25.83
2022-09-12T12:57:52.928Z,25.81
2022-09-12T13:00:25.156Z,25.58
2022-09-12T13:03:09.443Z,25.56
2022-09-12T13:05:49.067Z,25.54
2022-09-12T13:08:18.489Z,25.62
2022-09-12T13:10:54.511Z,25.76
2022-09-12T13:13:47.373Z,25.82
2022-09-12T13:16:29.987Z,25.90
2022-09-12T13:19:01.569Z,25.88
2022-09-12T13:21:28.169Z,25.75
2022-09-12T13:24:12.855Z,25.71
2022-09-12T13:26:45.346Z,25.75
2022-09-12T13:29:20.377Z,25.80
2022-09-12T13:31:50.856Z,25.82
2022-09-12T13:34:44.121Z,25.70
2022-09-12T13:37:29.451Z,25.55
2022-09-12T13:40:30.513Z,25.43
2022-09-12T13:43:09.905Z,25.28
2022-09-12T13:45:39.403Z,25.18
2022-09-12T13:48:07.991Z,25.23
2022-09-12T13:50:41.664Z,25.33
2022-09-12T13:53:15.944Z,25.45
2022-09-12T13:55:50.068Z,25.31
2022-09-12T13:58:31.391Z,25.38
2022-09-12T14:01:09.798Z,25.52
2022-09-12T14:04:07.720Z,25.70
2022-09-12T14:06:52.994Z,25.61
2022-09-12T14:09:25.985Z,25.64
2022-09-12T14:11:53.129Z,25.63
2022-09-12T14:14:28.343Z,25.69
2022-09-12T14:16:54.919Z,25.56
2022-09-12T14:19:25.952Z,25.51
2022-09-12T14:21:53.855Z,25.55
2022-09-12T14:24:24.067Z,25.58
2022-09-12T14:26:56.626Z,25.37
2022-09-12T14:29:25.274Z,25.17
2022-09-12T14:32:03.199Z,25.11
2022-09-12T14:34:30.258Z,25.24
2022-09-12T14:36:57.689Z,25.32
2022-09-12T14:39:33.297Z,25.40
2022-09-12T14:42:07.134Z,25.41
2022-09-12T14:44:36.664Z,25.32
2022-09-12T14:47:24.181Z,25.11
2022-09-12T14:49:54.530Z,25.13
2022-09-12T14:52:33.396Z,25.30
2022-09-12T14:55:01.611Z,25.40
2022-09-12T14:57:28.060Z,25.33
2022-09-12T15:00:06.105Z,25.15
2022-09-12T15:02:34.303Z,25.17
2022-09-12T15:05:03.864Z,25.20
2022-09-12T15:07:35.985Z,25.14
2022-09-12T15:10:27.393Z,25.08
2022-09-12T15:13:05.995Z,24.93
2022-09-12T15:15:36.786Z,24.92
2022-09-12T15:18:06.601Z,24.84
2022-09-12T15:20:36.053Z,24.78
2022-09-12T15:23:02.639Z,24.72
2022-09-12T15:25:29.144Z,24.73
2022-09-12T15:27:56.423Z,24.77
2022-09-12T15:30:22.935Z,24.81
2022-09-12T15:32:49.469Z,24.72
2022-09-12T15:35:23.071Z,24.73
2022-09-12T15:37:50.180Z,24.75
2022-09-12T15:40:17.428Z,24.69
2022-09-12T15:42:44.149Z,24.68
2022-09-12T15:45:21.766Z,24.66
2022-09-12T15:47:48.284Z,24.72
2022-09-12T15:50:15.367Z,24.74
2022-09-12T15:52:42.420Z,24.74
2022-09-12T15:55:32.212Z,24.86
2022-09-12T15:58:06.324Z,24.91
2022-09-12T16:00:33.568Z,24.87
2022-09-12T16:02:59.975Z,24.80
2022-09-12T16:05:26.860Z,24.83
2022-09-12T16:07:54.649Z,24.73
2022-09-12T16:10:27.443Z,24.71
2022-09-12T16:12:53.804Z,24.70
2022-09-12T16:15:23.160Z,24.62
2022-09-12T16:17:50.466Z,24.62
2022-09-12T16:20:17.716Z,24.58
2022-09-12T16:22:44.116Z,24.56
2022-09-12T16:25:10.755Z,24.54
2022-09-12T16:27:37.645Z,24.52
2022-09-12T16:30:06.214Z,24.51
2022-09-12T16:32:33.572Z,24.37
2022-09-12T16:35:00.561Z,24.34
2022-09-12T16:37:26.976Z,24.31
2022-09-12T16:39:53.498Z,24.13
2022-09-12T16:42:19.980Z,24.05
2022-09-12T16:44:47.083Z,23.90
2022-09-12T16:47:14.244Z,23.81
2022-09-12T16:49:40.847Z,23.72
2022-09-12T16:52:07.856Z,23.60
2022-09-12T16:54:34.447Z,23.50
2022-09-12T16:57:01.003Z,23.41
2022-09-12T16:59:27.407Z,23.36
2022-09-12T17:01:53.851Z,23.27
2022-09-12T17:04:23.412Z,23.16
2022-09-12T17:06:50.284Z,23.10
2022-09-12T17:09:18.534Z,23.11
2022-09-12T17:11:47.871Z,23.05
2022-09-12T17:14:14.308Z,22.99
2022-09-12T17:16:46.890Z,22.95
2022-09-12T17:19:26.697Z,22.89
2022-09-12T17:21:54.015Z,22.84
2022-09-12T17:24:21.008Z,22.80
2022-09-12T17:26:47.683Z,22.73
2022-09-12T17:29:14.365Z,22.69
2022-09-12T17:31:41.901Z,22.65
2022-09-12T17:34:09.103Z,22.66
2022-09-12T17:36:35.672Z,22.62
2022-09-12T17:39:04.070Z,22.55
2022-09-12T17:41:34.296Z,22.45
2022-09-12T17:44:02.902Z,22.39
2022-09-12T17:46:39.000Z,22.28
2022-09-12T17:49:10.696Z,22.21
2022-09-12T17:51:37.388Z,22.15
2022-09-12T17:54:11.945Z,22.09
2022-09-12T17:56:39.525Z,22.00
2022-09-12T17:59:07.738Z,21.93
2022-09-12T18:01:53.555Z,21.84
2022-09-12T18:04:20.313Z,21.75
2022-09-12T18:06:50.289Z,21.70
2022-09-12T18:09:22.126Z,21.68
2022-09-12T18:11:49.540Z,21.57
2022-09-12T18:14:17.220Z,21.50
2022-09-12T18:16:44.437Z,21.46
2022-09-12T18:19:11.317Z,21.41
2022-09-12T18:21:38.108Z,21.34
2022-09-12T18:24:05.030Z,21.20
2022-09-12T18:26:32.239Z,21.09
2022-09-12T18:28:58.981Z,20.95
2022-09-12T18:31:29.039Z,20.88
2022-09-12T18:33:55.735Z,20.72
2022-09-12T18:36:22.617Z,20.71
2022-09-12T18:38:49.477Z,20.64
2022-09-12T18:41:18.549Z,20.59
2022-09-12T18:43:45.472Z,20.57
2022-09-12T18:46:17.561Z,20.52
2022-09-12T18:48:45.377Z,20.33
2022-09-12T18:51:19.928Z,20.25
2022-09-12T18:54:06.861Z,20.25
2022-09-12T18:56:37.528Z,20.17
2022-09-12T18:59:06.261Z,20.09
2022-09-12T19:01:35.489Z,20.08
2022-09-12T19:04:04.847Z,20.00
2022-09-12T19:06:34.427Z,19.85
2022-09-12T19:09:06.699Z,19.84
2022-09-12T19:11:34.364Z,19.85
2022-09-12T19:14:00.995Z,19.81
2022-09-12T19:16:29.104Z,19.77
2022-09-12T19:18:56.836Z,19.67
2022-09-12T19:21:26.026Z,19.53
2022-09-12T19:23:55.801Z,19.48
2022-09-12T19:26:22.379Z,19.56
2022-09-12T19:28:48.847Z,19.59
2022-09-12T19:31:19.130Z,19.60
2022-09-12T19:33:46.573Z,19.57
2022-09-12T19:36:34.083Z,19.51
2022-09-12T19:39:01.530Z,19.55
2022-09-12T19:41:28.068Z,19.57
2022-09-12T19:43:57.701Z,19.53
2022-09-12T19:46:26.058Z,19.50
2022-09-12T19:48:53.035Z,19.45
2022-09-12T19:51:21.178Z,19.43
2022-09-12T19:53:47.766Z,19.45
2022-09-12T19:56:14.625Z,19.43
2022-09-12T19:58:43.463Z,19.40
2022-09-12T20:01:12.394Z,19.38
2022-09-12T20:03:39.556Z,19.30
2022-09-12T20:06:09.337Z,19.24
2022-09-12T20:08:40.425Z,19.17
2022-09-12T20:11:07.561Z,19.14
2022-09-12T20:13:34.499Z,19.19
2022-09-12T20:16:08.460Z,19.18
2022-09-12T20:18:35.625Z,19.20
2022-09-12T20:21:14.978Z,19.17
2022-09-12T20:23:41.455Z,19.20
2022-09-12T20:26:09.100Z,19.20
2022-09-12T20:28:39.820Z,19.19
2022-09-12T20:31:10.506Z,19.06
2022-09-12T20:33:37.311Z,19.04
2022-09-12T20:36:07.213Z,19.04
2022-09-12T20:38:34.101Z,18.98
2022-09-12T20:41:02.014Z,18.89
2022-09-12T20:43:28.693Z,18.86
2022-09-12T20:45:55.293Z,18.79
2022-09-12T20:48:21.989Z,18.69
2022-09-12T20:50:48.316Z,18.66
2022-09-12T20:53:14.864Z,18.67
2022-09-12T20:55:49.335Z,18.68
2022-09-12T20:58:15.827Z,18.71
2022-09-12T21:00:42.341Z,18.67
2022-09-12T21:03:08.916Z,18.73
2022-09-12T21:05:35.324Z,18.76
2022-09-12T21:08:02.015Z,18.77
2022-09-12T21:10:29.338Z,18.72
2022-09-12T21:12:56.028Z,18.64
2022-09-12T21:15:22.476Z,18.56
2022-09-12T21:17:48.980Z,18.56
2022-09-12T21:20:15.529Z,18.46
2022-09-12T21:22:41.877Z,18.36
2022-09-12T21:25:08.469Z,18.41
2022-09-12T21:27:34.897Z,18.47
2022-09-12T21:30:03.632Z,18.49
2022-09-12T21:32:35.578Z,18.49
2022-09-12T21:35:05.952Z,18.51
2022-09-12T21:37:32.845Z,18.49
2022-09-12T21:39:59.369Z,18.41
2022-09-12T21:42:26.094Z,18.32
2022-09-12T21:44:52.804Z,18.38
2022-09-12T21:47:19.329Z,18.42
2022-09-12T21:49:45.801Z,18.48
2022-09-12T21:52:15.252Z,18.46
2022-09-12T21:54:41.751Z,18.37
2022-09-12T21:57:08.137Z,18.28
2022-09-12T21:59:34.544Z,18.19
2022-09-12T22:02:00.919Z,18.26
2022-09-12T22:04:27.215Z,18.31
2022-09-12T22:06:53.744Z,18.37
2022-09-12T22:09:20.115Z,18.37
2022-09-12T22:11:47.025Z,18.37
2022-09-12T22:14:13.708Z,18.35
2022-09-12T22:16:40.425Z,18.36
2022-09-12T22:19:07.022Z,18.33
2022-09-12T22:21:33.370Z,18.33
2022-09-12T22:24:18.754Z,18.24
2022-09-12T22:26:46.293Z,18.17
2022-09-12T22:29:16.133Z,18.19
2022-09-12T22:31:43.087Z,18.29
2022-09-12T22:34:09.952Z,18.32
2022-09-12T22:36:38.959Z,18.33
2022-09-12T22:39:06.045Z,18.37
2022-09-12T22:41:32.413Z,18.40
2022-09-12T22:43:58.815Z,18.39
2022-09-12T22:46:25.453Z,18.36
2022-09-12T22:48:52.364Z,18.37
2022-09-12T22:51:19.019Z,18.32
2022-09-12T22:53:45.366Z,18.27
2022-09-12T22:56:11.768Z,18.27
2022-09-12T22:58:38.611Z,18.29
2022-09-12T23:01:06.458Z,18.22
2022-09-12T23:03:33.398Z,18.19
2022-09-12T23:05:59.857Z,18.17
2022-09-12T23:08:29.625Z,18.15
2022-09-12T23:11:04.208Z,18.04
2022-09-12T23:13:31.155Z,17.99
2022-09-12T23:16:02.114Z,18.01
2022-09-12T23:18:29.212Z,18.11
2022-09-12T23:21:00.440Z,18.17
2022-09-12T23:23:27.386Z,18.21
2022-09-12T23:26:07.106Z,18.22
2022-09-12T23:28:35.630Z,18.26
2022-09-12T23:31:02.883Z,18.25
2022-09-12T23:33:30.742Z,18.23
2022-09-12T23:36:06.383Z,18.18
2022-09-12T23:38:34.792Z,18.11
2022-09-12T23:41:03.375Z,18.04
2022-09-12T23:43:30.640Z,17.98
2022-09-12T23:45:58.394Z,17.99
2022-09-12T23:48:25.135Z,18.04
2022-09-12T23:50:52.184Z,18.05
2022-09-12T23:53:19.504Z,18.05
2022-09-12T23:55:46.051Z,18.04
2022-09-12T23:58:13.337Z,17.99
